sensor_id;sensor_type;location;lat;lon;timestamp;temperature;humidity
5276;DHT22;2661;50.786;12.728;2023-07-22T00:00:31;14.20;1.00
5276;DHT22;2661;50.786;12.728;2023-07-22T00:02:57;14.20;1.00
5276;DHT22;2661;50.786;12.728;2023-07-22T00:05:24;14.30;1.00
5276;DHT22;2661;50.786;12.728;2023-07-22T00:07:51;14.40;1.00
5276;DHT22;2661;50.786;12.728;2023-07-22T00:10:19;14.40;99.90
5276;DHT22;2661;50.786;12.728;2023-07-22T00:12:45;14.50;99.90
5276;DHT22;2661;50.786;12.728;2023-07-22T00:15:12;14.50;72.30
5276;DHT22;2661;50.786;12.728;2023-07-22T00:17:39;14.50;89.60
5276;DHT22;2661;50.786;12.728;2023-07-22T00:20:07;14.50;99.90
5276;DHT22;2661;50.786;12.728;2023-07-22T00:22:37;14.50;99.90
5276;DHT22;2661;50.786;12.728;2023-07-22T00:25:04;14.50;52.90
5276;DHT22;2661;50.786;12.728;2023-07-22T00:27:31;14.50;1.00
5276;DHT22;2661;50.786;12.728;2023-07-22T00:29:57;14.50;99.90
5276;DHT22;2661;50.786;12.728;2023-07-22T00:32:24;14.50;1.00
5276;DHT22;2661;50.786;12.728;2023-07-22T00:34:50;14.50;1.00
5276;DHT22;2661;50.786;12.728;2023-07-22T00:37:17;14.50;99.90
5276;DHT22;2661;50.786;12.728;2023-07-22T00:39:44;14.50;1.00
5276;DHT22;2661;50.786;12.728;2023-07-22T00:42:11;14.50;1.00
5276;DHT22;2661;50.786;12.728;2023-07-22T00:44:38;14.50;99.90
5276;DHT22;2661;50.786;12.728;2023-07-22T00:47:04;14.50;99.90
5276;DHT22;2661;50.786;12.728;2023-07-22T00:49:31;14.50;99.90
5276;DHT22;2661;50.786;12.728;2023-07-22T00:51:59;14.50;32.00
5276;DHT22;2661;50.786;12.728;2023-07-22T00:54:28;14.50;99.90
5276;DHT22;2661;50.786;12.728;2023-07-22T00:56:55;14.50;99.90
5276;DHT22;2661;50.786;12.728;2023-07-22T00:59:22;14.40;99.90
5276;DHT22;2661;50.786;12.728;2023-07-22T01:01:49;14.50;99.90
5276;DHT22;2661;50.786;12.728;2023-07-22T01:04:16;14.40;99.90
5276;DHT22;2661;50.786;12.728;2023-07-22T01:06:45;14.40;67.30
5276;DHT22;2661;50.786;12.728;2023-07-22T01:09:12;14.40;99.90
5276;DHT22;2661;50.786;12.728;2023-07-22T01:11:39;14.40;99.90
5276;DHT22;2661;50.786;12.728;2023-07-22T01:14:06;14.40;99.90
5276;DHT22;2661;50.786;12.728;2023-07-22T01:16:34;14.40;47.40
5276;DHT22;2661;50.786;12.728;2023-07-22T01:19:01;14.40;99.90
5276;DHT22;2661;50.786;12.728;2023-07-22T01:21:28;14.40;99.90
5276;DHT22;2661;50.786;12.728;2023-07-22T01:23:55;14.40;99.90
5276;DHT22;2661;50.786;12.728;2023-07-22T01:26:21;14.40;1.20
5276;DHT22;2661;50.786;12.728;2023-07-22T01:28:50;14.40;99.90
5276;DHT22;2661;50.786;12.728;2023-07-22T01:31:17;14.40;64.20
5276;DHT22;2661;50.786;12.728;2023-07-22T01:33:43;14.30;59.80
5276;DHT22;2661;50.786;12.728;2023-07-22T01:36:11;14.30;51.70
5276;DHT22;2661;50.786;12.728;2023-07-22T01:38:38;14.30;99.90
5276;DHT22;2661;50.786;12.728;2023-07-22T01:41:05;14.40;99.90
5276;DHT22;2661;50.786;12.728;2023-07-22T01:43:32;14.40;1.00
5276;DHT22;2661;50.786;12.728;2023-07-22T01:45:58;14.40;99.90
5276;DHT22;2661;50.786;12.728;2023-07-22T01:48:25;14.40;1.00
5276;DHT22;2661;50.786;12.728;2023-07-22T01:50:52;14.40;1.00
5276;DHT22;2661;50.786;12.728;2023-07-22T01:53:18;14.40;1.00
5276;DHT22;2661;50.786;12.728;2023-07-22T01:55:45;14.50;1.00
5276;DHT22;2661;50.786;12.728;2023-07-22T01:58:11;14.40;1.00
5276;DHT22;2661;50.786;12.728;2023-07-22T02:00:38;14.40;1.00
5276;DHT22;2661;50.786;12.728;2023-07-22T02:03:05;14.40;1.00
5276;DHT22;2661;50.786;12.728;2023-07-22T02:05:32;14.40;1.00
5276;DHT22;2661;50.786;12.728;2023-07-22T02:07:59;14.40;1.00
5276;DHT22;2661;50.786;12.728;2023-07-22T02:10:25;14.40;1.00
5276;DHT22;2661;50.786;12.728;2023-07-22T02:12:52;14.30;1.00
5276;DHT22;2661;50.786;12.728;2023-07-22T02:15:18;14.30;1.00
5276;DHT22;2661;50.786;12.728;2023-07-22T02:17:45;14.30;1.00
5276;DHT22;2661;50.786;12.728;2023-07-22T02:20:12;14.40;1.00
5276;DHT22;2661;50.786;12.728;2023-07-22T02:22:39;14.40;1.00
5276;DHT22;2661;50.786;12.728;2023-07-22T02:25:05;14.40;1.00
5276;DHT22;2661;50.786;12.728;2023-07-22T02:27:33;14.40;1.00
5276;DHT22;2661;50.786;12.728;2023-07-22T02:29:59;14.40;1.00
5276;DHT22;2661;50.786;12.728;2023-07-22T02:32:26;14.30;1.00
5276;DHT22;2661;50.786;12.728;2023-07-22T02:34:52;14.30;1.00
5276;DHT22;2661;50.786;12.728;2023-07-22T02:37:19;14.20;1.00
5276;DHT22;2661;50.786;12.728;2023-07-22T02:39:46;14.20;1.00
5276;DHT22;2661;50.786;12.728;2023-07-22T02:42:12;14.20;1.00
5276;DHT22;2661;50.786;12.728;2023-07-22T02:44:39;14.10;1.00
5276;DHT22;2661;50.786;12.728;2023-07-22T02:47:06;14.10;1.00
5276;DHT22;2661;50.786;12.728;2023-07-22T02:49:32;14.00;1.00
5276;DHT22;2661;50.786;12.728;2023-07-22T02:51:59;14.00;1.00
5276;DHT22;2661;50.786;12.728;2023-07-22T02:54:26;13.90;1.00
5276;DHT22;2661;50.786;12.728;2023-07-22T02:56:52;13.90;1.00
5276;DHT22;2661;50.786;12.728;2023-07-22T02:59:19;13.90;1.00
5276;DHT22;2661;50.786;12.728;2023-07-22T03:01:46;13.90;21.20
5276;DHT22;2661;50.786;12.728;2023-07-22T03:04:12;13.90;29.10
5276;DHT22;2661;50.786;12.728;2023-07-22T03:06:40;13.80;1.00
5276;DHT22;2661;50.786;12.728;2023-07-22T03:09:10;13.80;47.00
5276;DHT22;2661;50.786;12.728;2023-07-22T03:11:37;13.80;99.90
5276;DHT22;2661;50.786;12.728;2023-07-22T03:14:04;13.80;99.90
5276;DHT22;2661;50.786;12.728;2023-07-22T03:16:30;13.70;99.90
5276;DHT22;2661;50.786;12.728;2023-07-22T03:18:58;13.70;1.00
5276;DHT22;2661;50.786;12.728;2023-07-22T03:21:25;13.70;99.90
5276;DHT22;2661;50.786;12.728;2023-07-22T03:23:51;13.70;99.90
5276;DHT22;2661;50.786;12.728;2023-07-22T03:26:18;13.70;99.90
5276;DHT22;2661;50.786;12.728;2023-07-22T03:28:44;13.70;1.00
5276;DHT22;2661;50.786;12.728;2023-07-22T03:31:11;13.70;1.00
5276;DHT22;2661;50.786;12.728;2023-07-22T03:33:38;13.60;1.00
5276;DHT22;2661;50.786;12.728;2023-07-22T03:36:05;13.60;1.00
5276;DHT22;2661;50.786;12.728;2023-07-22T03:38:31;13.60;1.00
5276;DHT22;2661;50.786;12.728;2023-07-22T03:40:58;13.60;99.90
5276;DHT22;2661;50.786;12.728;2023-07-22T03:43:25;13.70;1.00
5276;DHT22;2661;50.786;12.728;2023-07-22T03:45:52;13.70;1.00
5276;DHT22;2661;50.786;12.728;2023-07-22T03:48:19;13.80;1.00
5276;DHT22;2661;50.786;12.728;2023-07-22T03:50:45;13.70;1.00
5276;DHT22;2661;50.786;12.728;2023-07-22T03:53:12;13.80;1.00
5276;DHT22;2661;50.786;12.728;2023-07-22T03:55:39;13.90;99.90
5276;DHT22;2661;50.786;12.728;2023-07-22T03:58:05;14.00;99.90
5276;DHT22;2661;50.786;12.728;2023-07-22T04:00:32;13.90;99.90
5276;DHT22;2661;50.786;12.728;2023-07-22T04:02:59;13.90;99.90
5276;DHT22;2661;50.786;12.728;2023-07-22T04:05:26;13.80;1.00
5276;DHT22;2661;50.786;12.728;2023-07-22T04:07:52;13.80;1.00
5276;DHT22;2661;50.786;12.728;2023-07-22T04:10:19;13.70;1.00
5276;DHT22;2661;50.786;12.728;2023-07-22T04:12:46;13.70;1.00
5276;DHT22;2661;50.786;12.728;2023-07-22T04:15:12;13.70;1.00
5276;DHT22;2661;50.786;12.728;2023-07-22T04:17:39;13.80;1.00
5276;DHT22;2661;50.786;12.728;2023-07-22T04:20:06;13.70;1.00
5276;DHT22;2661;50.786;12.728;2023-07-22T04:22:35;13.70;99.90
5276;DHT22;2661;50.786;12.728;2023-07-22T04:25:02;13.70;1.00
5276;DHT22;2661;50.786;12.728;2023-07-22T04:27:28;13.70;1.00
5276;DHT22;2661;50.786;12.728;2023-07-22T04:29:55;13.70;99.90
5276;DHT22;2661;50.786;12.728;2023-07-22T04:32:22;13.80;1.00
5276;DHT22;2661;50.786;12.728;2023-07-22T04:34:49;13.80;1.00
5276;DHT22;2661;50.786;12.728;2023-07-22T04:37:15;13.80;1.00
5276;DHT22;2661;50.786;12.728;2023-07-22T04:39:46;13.80;1.00
5276;DHT22;2661;50.786;12.728;2023-07-22T04:42:13;13.80;1.00
5276;DHT22;2661;50.786;12.728;2023-07-22T04:44:39;13.80;1.00
5276;DHT22;2661;50.786;12.728;2023-07-22T04:47:07;13.80;1.00
5276;DHT22;2661;50.786;12.728;2023-07-22T04:49:34;13.80;1.00
5276;DHT22;2661;50.786;12.728;2023-07-22T04:52:00;13.90;1.00
5276;DHT22;2661;50.786;12.728;2023-07-22T04:54:27;13.90;1.00
5276;DHT22;2661;50.786;12.728;2023-07-22T04:56:54;13.90;1.00
5276;DHT22;2661;50.786;12.728;2023-07-22T04:59:21;14.00;1.00
5276;DHT22;2661;50.786;12.728;2023-07-22T05:01:47;14.10;1.00
5276;DHT22;2661;50.786;12.728;2023-07-22T05:04:14;14.10;1.00
5276;DHT22;2661;50.786;12.728;2023-07-22T05:06:41;14.10;1.00
5276;DHT22;2661;50.786;12.728;2023-07-22T05:09:07;14.10;99.90
5276;DHT22;2661;50.786;12.728;2023-07-22T05:11:58;14.20;99.90
5276;DHT22;2661;50.786;12.728;2023-07-22T05:14:24;14.20;99.90
5276;DHT22;2661;50.786;12.728;2023-07-22T05:16:51;14.20;99.90
5276;DHT22;2661;50.786;12.728;2023-07-22T05:19:17;14.20;99.90
5276;DHT22;2661;50.786;12.728;2023-07-22T05:21:45;14.30;99.90
5276;DHT22;2661;50.786;12.728;2023-07-22T05:24:12;14.30;99.90
5276;DHT22;2661;50.786;12.728;2023-07-22T05:26:39;14.40;99.90
5276;DHT22;2661;50.786;12.728;2023-07-22T05:29:07;14.40;99.90
5276;DHT22;2661;50.786;12.728;2023-07-22T05:31:33;14.40;99.90
5276;DHT22;2661;50.786;12.728;2023-07-22T05:34:00;14.50;27.80
5276;DHT22;2661;50.786;12.728;2023-07-22T05:36:27;14.60;83.20
5276;DHT22;2661;50.786;12.728;2023-07-22T05:38:54;14.60;35.10
5276;DHT22;2661;50.786;12.728;2023-07-22T05:41:21;14.60;99.90
5276;DHT22;2661;50.786;12.728;2023-07-22T05:43:47;14.70;1.00
5276;DHT22;2661;50.786;12.728;2023-07-22T05:46:14;14.80;1.00
5276;DHT22;2661;50.786;12.728;2023-07-22T05:48:40;14.80;14.50
5276;DHT22;2661;50.786;12.728;2023-07-22T05:51:07;14.80;1.00
5276;DHT22;2661;50.786;12.728;2023-07-22T05:53:34;14.70;1.00
5276;DHT22;2661;50.786;12.728;2023-07-22T05:56:01;14.80;31.10
5276;DHT22;2661;50.786;12.728;2023-07-22T05:58:27;14.80;1.00
5276;DHT22;2661;50.786;12.728;2023-07-22T06:00:54;14.90;1.00
5276;DHT22;2661;50.786;12.728;2023-07-22T06:03:21;14.90;1.00
5276;DHT22;2661;50.786;12.728;2023-07-22T06:05:48;14.90;1.00
5276;DHT22;2661;50.786;12.728;2023-07-22T06:08:15;14.90;1.00
5276;DHT22;2661;50.786;12.728;2023-07-22T06:10:41;14.90;1.00
5276;DHT22;2661;50.786;12.728;2023-07-22T06:13:08;14.90;1.00
5276;DHT22;2661;50.786;12.728;2023-07-22T06:15:35;14.90;1.00
5276;DHT22;2661;50.786;12.728;2023-07-22T06:18:01;14.90;1.00
5276;DHT22;2661;50.786;12.728;2023-07-22T06:20:28;15.00;1.00
5276;DHT22;2661;50.786;12.728;2023-07-22T06:22:55;15.00;1.00
5276;DHT22;2661;50.786;12.728;2023-07-22T06:25:21;15.00;1.00
5276;DHT22;2661;50.786;12.728;2023-07-22T06:27:48;15.00;1.00
5276;DHT22;2661;50.786;12.728;2023-07-22T06:30:15;15.10;1.00
5276;DHT22;2661;50.786;12.728;2023-07-22T06:32:41;15.10;1.00
5276;DHT22;2661;50.786;12.728;2023-07-22T06:35:08;15.20;1.00
5276;DHT22;2661;50.786;12.728;2023-07-22T06:37:34;15.20;1.00
5276;DHT22;2661;50.786;12.728;2023-07-22T06:40:01;15.30;1.00
5276;DHT22;2661;50.786;12.728;2023-07-22T06:42:28;15.30;1.00
5276;DHT22;2661;50.786;12.728;2023-07-22T06:44:55;15.30;1.00
5276;DHT22;2661;50.786;12.728;2023-07-22T06:47:22;15.40;1.00
5276;DHT22;2661;50.786;12.728;2023-07-22T06:49:48;15.40;1.00
5276;DHT22;2661;50.786;12.728;2023-07-22T06:52:15;15.50;1.00
5276;DHT22;2661;50.786;12.728;2023-07-22T06:54:42;15.40;1.00
5276;DHT22;2661;50.786;12.728;2023-07-22T06:57:08;15.50;1.00
5276;DHT22;2661;50.786;12.728;2023-07-22T06:59:35;15.60;1.00
5276;DHT22;2661;50.786;12.728;2023-07-22T07:02:02;15.80;1.00
5276;DHT22;2661;50.786;12.728;2023-07-22T07:04:29;15.90;1.00
5276;DHT22;2661;50.786;12.728;2023-07-22T07:06:56;15.90;1.00
5276;DHT22;2661;50.786;12.728;2023-07-22T07:09:22;15.90;1.00
5276;DHT22;2661;50.786;12.728;2023-07-22T07:11:49;15.90;1.00
5276;DHT22;2661;50.786;12.728;2023-07-22T07:14:16;16.00;1.00
5276;DHT22;2661;50.786;12.728;2023-07-22T07:16:43;16.00;1.00
5276;DHT22;2661;50.786;12.728;2023-07-22T07:19:09;16.00;1.00
5276;DHT22;2661;50.786;12.728;2023-07-22T07:21:36;15.90;1.00
5276;DHT22;2661;50.786;12.728;2023-07-22T07:24:03;15.80;1.00
5276;DHT22;2661;50.786;12.728;2023-07-22T07:26:29;15.80;1.00
5276;DHT22;2661;50.786;12.728;2023-07-22T07:28:56;15.80;1.00
5276;DHT22;2661;50.786;12.728;2023-07-22T07:31:23;15.80;1.00
5276;DHT22;2661;50.786;12.728;2023-07-22T07:33:50;15.80;1.00
5276;DHT22;2661;50.786;12.728;2023-07-22T07:36:16;15.90;1.00
5276;DHT22;2661;50.786;12.728;2023-07-22T07:38:43;16.10;1.00
5276;DHT22;2661;50.786;12.728;2023-07-22T07:41:10;16.20;1.00
5276;DHT22;2661;50.786;12.728;2023-07-22T07:43:38;16.20;1.00
5276;DHT22;2661;50.786;12.728;2023-07-22T07:46:21;16.40;1.00
5276;DHT22;2661;50.786;12.728;2023-07-22T07:48:50;16.60;1.00
5276;DHT22;2661;50.786;12.728;2023-07-22T07:51:18;16.80;1.00
5276;DHT22;2661;50.786;12.728;2023-07-22T07:53:46;16.90;1.00
5276;DHT22;2661;50.786;12.728;2023-07-22T07:56:16;17.00;1.00
5276;DHT22;2661;50.786;12.728;2023-07-22T07:58:43;17.20;1.00
5276;DHT22;2661;50.786;12.728;2023-07-22T08:01:10;17.20;1.00
5276;DHT22;2661;50.786;12.728;2023-07-22T08:03:37;17.20;1.00
5276;DHT22;2661;50.786;12.728;2023-07-22T08:06:04;17.10;1.00
5276;DHT22;2661;50.786;12.728;2023-07-22T08:08:31;17.20;1.00
5276;DHT22;2661;50.786;12.728;2023-07-22T08:11:01;17.10;1.00
5276;DHT22;2661;50.786;12.728;2023-07-22T08:13:28;17.10;1.00
5276;DHT22;2661;50.786;12.728;2023-07-22T08:15:59;17.00;1.00
5276;DHT22;2661;50.786;12.728;2023-07-22T08:18:26;17.10;1.00
5276;DHT22;2661;50.786;12.728;2023-07-22T08:20:56;17.00;1.00
5276;DHT22;2661;50.786;12.728;2023-07-22T08:23:23;17.00;1.00
5276;DHT22;2661;50.786;12.728;2023-07-22T08:25:49;17.00;1.00
5276;DHT22;2661;50.786;12.728;2023-07-22T08:28:16;17.00;1.00
5276;DHT22;2661;50.786;12.728;2023-07-22T08:30:43;17.00;1.00
5276;DHT22;2661;50.786;12.728;2023-07-22T08:33:11;17.00;21.70
5276;DHT22;2661;50.786;12.728;2023-07-22T08:35:39;16.90;1.00
5276;DHT22;2661;50.786;12.728;2023-07-22T08:38:06;17.00;1.00
5276;DHT22;2661;50.786;12.728;2023-07-22T08:40:36;16.90;1.00
5276;DHT22;2661;50.786;12.728;2023-07-22T08:43:03;17.00;1.00
5276;DHT22;2661;50.786;12.728;2023-07-22T08:45:32;17.00;1.00
5276;DHT22;2661;50.786;12.728;2023-07-22T08:48:01;17.10;1.00
5276;DHT22;2661;50.786;12.728;2023-07-22T08:50:30;17.30;1.00
5276;DHT22;2661;50.786;12.728;2023-07-22T08:53:00;17.30;1.00
5276;DHT22;2661;50.786;12.728;2023-07-22T08:55:27;17.40;1.00
5276;DHT22;2661;50.786;12.728;2023-07-22T08:57:54;17.50;1.00
5276;DHT22;2661;50.786;12.728;2023-07-22T09:00:21;17.50;1.00
5276;DHT22;2661;50.786;12.728;2023-07-22T09:02:48;17.60;1.00
5276;DHT22;2661;50.786;12.728;2023-07-22T09:05:15;17.60;1.00
5276;DHT22;2661;50.786;12.728;2023-07-22T09:07:42;17.70;1.00
5276;DHT22;2661;50.786;12.728;2023-07-22T09:10:09;17.70;1.00
5276;DHT22;2661;50.786;12.728;2023-07-22T09:12:36;17.70;1.00
5276;DHT22;2661;50.786;12.728;2023-07-22T09:15:09;17.70;1.00
5276;DHT22;2661;50.786;12.728;2023-07-22T09:17:40;17.90;15.20
5276;DHT22;2661;50.786;12.728;2023-07-22T09:20:07;18.10;32.00
5276;DHT22;2661;50.786;12.728;2023-07-22T09:22:34;18.20;54.90
5276;DHT22;2661;50.786;12.728;2023-07-22T09:25:13;18.40;50.20
5276;DHT22;2661;50.786;12.728;2023-07-22T09:27:41;18.50;42.60
5276;DHT22;2661;50.786;12.728;2023-07-22T09:30:20;18.60;74.10
5276;DHT22;2661;50.786;12.728;2023-07-22T09:32:47;18.70;62.60
5276;DHT22;2661;50.786;12.728;2023-07-22T09:35:14;18.70;99.90
5276;DHT22;2661;50.786;12.728;2023-07-22T09:37:41;18.70;99.90
5276;DHT22;2661;50.786;12.728;2023-07-22T09:40:14;18.80;94.70
5276;DHT22;2661;50.786;12.728;2023-07-22T09:42:48;18.90;83.00
5276;DHT22;2661;50.786;12.728;2023-07-22T09:45:16;19.00;99.90
5276;DHT22;2661;50.786;12.728;2023-07-22T09:47:47;19.00;99.90
5276;DHT22;2661;50.786;12.728;2023-07-22T09:50:15;19.10;1.00
5276;DHT22;2661;50.786;12.728;2023-07-22T09:52:43;19.10;1.00
5276;DHT22;2661;50.786;12.728;2023-07-22T09:55:10;19.10;97.30
5276;DHT22;2661;50.786;12.728;2023-07-22T09:57:41;19.20;1.00
5276;DHT22;2661;50.786;12.728;2023-07-22T10:00:10;19.30;1.00
5276;DHT22;2661;50.786;12.728;2023-07-22T10:02:37;19.30;1.00
5276;DHT22;2661;50.786;12.728;2023-07-22T10:05:06;19.40;1.00
5276;DHT22;2661;50.786;12.728;2023-07-22T10:07:34;19.50;46.70
5276;DHT22;2661;50.786;12.728;2023-07-22T10:10:03;19.60;99.90
5276;DHT22;2661;50.786;12.728;2023-07-22T10:12:30;19.60;96.60
5276;DHT22;2661;50.786;12.728;2023-07-22T10:14:57;19.70;99.90
5276;DHT22;2661;50.786;12.728;2023-07-22T10:17:24;19.80;49.10
5276;DHT22;2661;50.786;12.728;2023-07-22T10:19:52;19.70;53.50
5276;DHT22;2661;50.786;12.728;2023-07-22T10:22:20;19.70;99.90
5276;DHT22;2661;50.786;12.728;2023-07-22T10:24:47;19.60;99.90
5276;DHT22;2661;50.786;12.728;2023-07-22T10:27:14;19.50;99.90
5276;DHT22;2661;50.786;12.728;2023-07-22T10:29:43;19.40;99.90
5276;DHT22;2661;50.786;12.728;2023-07-22T10:32:11;19.40;99.90
5276;DHT22;2661;50.786;12.728;2023-07-22T10:34:38;19.50;87.40
5276;DHT22;2661;50.786;12.728;2023-07-22T10:37:05;19.60;10.60
5276;DHT22;2661;50.786;12.728;2023-07-22T10:39:31;19.70;55.40
5276;DHT22;2661;50.786;12.728;2023-07-22T10:42:02;19.70;80.10
5276;DHT22;2661;50.786;12.728;2023-07-22T10:44:37;19.70;38.90
5276;DHT22;2661;50.786;12.728;2023-07-22T10:47:05;19.80;13.60
5276;DHT22;2661;50.786;12.728;2023-07-22T10:52:40;19.80;99.90
5276;DHT22;2661;50.786;12.728;2023-07-22T10:55:19;19.90;96.60
5276;DHT22;2661;50.786;12.728;2023-07-22T10:57:50;20.00;99.90
5276;DHT22;2661;50.786;12.728;2023-07-22T11:00:20;20.20;99.90
5276;DHT22;2661;50.786;12.728;2023-07-22T11:02:47;20.40;44.90
5276;DHT22;2661;50.786;12.728;2023-07-22T11:05:49;20.60;33.50
5276;DHT22;2661;50.786;12.728;2023-07-22T11:08:17;20.70;99.90
5276;DHT22;2661;50.786;12.728;2023-07-22T11:11:03;20.70;51.50
5276;DHT22;2661;50.786;12.728;2023-07-22T11:13:29;20.50;99.90
5276;DHT22;2661;50.786;12.728;2023-07-22T11:15:59;20.40;25.90
5276;DHT22;2661;50.786;12.728;2023-07-22T11:18:38;20.30;65.50
5276;DHT22;2661;50.786;12.728;2023-07-22T11:21:12;20.20;32.70
5276;DHT22;2661;50.786;12.728;2023-07-22T11:23:38;19.90;52.90
5276;DHT22;2661;50.786;12.728;2023-07-22T11:26:05;19.80;99.90
5276;DHT22;2661;50.786;12.728;2023-07-22T11:28:32;19.80;96.70
5276;DHT22;2661;50.786;12.728;2023-07-22T11:30:58;19.80;92.60
5276;DHT22;2661;50.786;12.728;2023-07-22T11:33:37;19.80;11.00
5276;DHT22;2661;50.786;12.728;2023-07-22T11:36:04;19.80;24.80
5276;DHT22;2661;50.786;12.728;2023-07-22T11:38:30;19.90;41.20
5276;DHT22;2661;50.786;12.728;2023-07-22T11:40:57;20.10;99.90
5276;DHT22;2661;50.786;12.728;2023-07-22T11:43:24;20.30;99.90
5276;DHT22;2661;50.786;12.728;2023-07-22T11:45:51;20.50;94.70
5276;DHT22;2661;50.786;12.728;2023-07-22T11:48:18;20.80;99.90
5276;DHT22;2661;50.786;12.728;2023-07-22T11:50:46;20.90;99.90
5276;DHT22;2661;50.786;12.728;2023-07-22T11:53:13;20.80;91.60
5276;DHT22;2661;50.786;12.728;2023-07-22T11:55:40;20.70;96.60
5276;DHT22;2661;50.786;12.728;2023-07-22T11:58:08;20.50;99.90
5276;DHT22;2661;50.786;12.728;2023-07-22T12:00:35;20.40;37.30
5276;DHT22;2661;50.786;12.728;2023-07-22T12:03:05;20.30;29.50
5276;DHT22;2661;50.786;12.728;2023-07-22T12:05:35;20.20;99.90
5276;DHT22;2661;50.786;12.728;2023-07-22T12:08:02;20.10;99.90
5276;DHT22;2661;50.786;12.728;2023-07-22T12:10:30;20.00;99.90
5276;DHT22;2661;50.786;12.728;2023-07-22T12:12:59;20.00;94.60
5276;DHT22;2661;50.786;12.728;2023-07-22T12:15:26;19.90;83.00
5276;DHT22;2661;50.786;12.728;2023-07-22T12:17:54;19.90;83.30
5276;DHT22;2661;50.786;12.728;2023-07-22T12:20:28;19.90;99.90
5276;DHT22;2661;50.786;12.728;2023-07-22T12:22:55;19.90;99.90
5276;DHT22;2661;50.786;12.728;2023-07-22T12:25:22;20.00;99.90
5276;DHT22;2661;50.786;12.728;2023-07-22T12:27:49;19.90;99.90
5276;DHT22;2661;50.786;12.728;2023-07-22T12:30:16;19.80;99.90
5276;DHT22;2661;50.786;12.728;2023-07-22T12:32:46;19.80;99.90
5276;DHT22;2661;50.786;12.728;2023-07-22T12:35:12;19.80;99.90
5276;DHT22;2661;50.786;12.728;2023-07-22T12:37:40;19.90;99.90
5276;DHT22;2661;50.786;12.728;2023-07-22T12:40:07;20.00;99.90
5276;DHT22;2661;50.786;12.728;2023-07-22T12:42:35;20.10;99.90
5276;DHT22;2661;50.786;12.728;2023-07-22T12:45:02;20.10;99.90
5276;DHT22;2661;50.786;12.728;2023-07-22T12:47:29;20.20;99.90
5276;DHT22;2661;50.786;12.728;2023-07-22T12:49:56;20.30;99.90
5276;DHT22;2661;50.786;12.728;2023-07-22T12:52:23;20.30;99.90
5276;DHT22;2661;50.786;12.728;2023-07-22T12:54:49;20.40;99.90
5276;DHT22;2661;50.786;12.728;2023-07-22T12:57:16;20.50;99.90
5276;DHT22;2661;50.786;12.728;2023-07-22T12:59:43;20.70;99.90
5276;DHT22;2661;50.786;12.728;2023-07-22T13:02:12;20.80;99.90
5276;DHT22;2661;50.786;12.728;2023-07-22T13:04:39;20.90;99.90
5276;DHT22;2661;50.786;12.728;2023-07-22T13:07:05;20.90;99.90
5276;DHT22;2661;50.786;12.728;2023-07-22T13:09:32;20.90;99.90
5276;DHT22;2661;50.786;12.728;2023-07-22T13:11:58;21.00;99.90
5276;DHT22;2661;50.786;12.728;2023-07-22T13:14:25;21.00;99.90
5276;DHT22;2661;50.786;12.728;2023-07-22T13:16:52;21.10;99.90
5276;DHT22;2661;50.786;12.728;2023-07-22T13:19:18;21.10;99.90
5276;DHT22;2661;50.786;12.728;2023-07-22T13:21:45;21.20;99.90
5276;DHT22;2661;50.786;12.728;2023-07-22T13:24:12;21.20;99.90
5276;DHT22;2661;50.786;12.728;2023-07-22T13:26:38;21.40;99.90
5276;DHT22;2661;50.786;12.728;2023-07-22T13:29:06;21.40;99.90
5276;DHT22;2661;50.786;12.728;2023-07-22T13:31:32;21.50;99.90
5276;DHT22;2661;50.786;12.728;2023-07-22T13:33:59;21.50;99.90
5276;DHT22;2661;50.786;12.728;2023-07-22T13:36:26;21.50;99.90
5276;DHT22;2661;50.786;12.728;2023-07-22T13:38:52;21.50;99.90
5276;DHT22;2661;50.786;12.728;2023-07-22T13:41:19;21.50;99.90
5276;DHT22;2661;50.786;12.728;2023-07-22T13:43:46;21.50;99.90
5276;DHT22;2661;50.786;12.728;2023-07-22T13:46:12;21.60;99.90
5276;DHT22;2661;50.786;12.728;2023-07-22T13:48:39;21.60;99.90
5276;DHT22;2661;50.786;12.728;2023-07-22T13:51:05;21.50;99.90
5276;DHT22;2661;50.786;12.728;2023-07-22T13:53:32;21.50;99.90
5276;DHT22;2661;50.786;12.728;2023-07-22T13:55:58;21.40;99.90
5276;DHT22;2661;50.786;12.728;2023-07-22T13:58:25;21.30;99.90
5276;DHT22;2661;50.786;12.728;2023-07-22T14:00:52;21.30;99.90
5276;DHT22;2661;50.786;12.728;2023-07-22T14:03:18;21.30;99.90
5276;DHT22;2661;50.786;12.728;2023-07-22T14:05:45;21.30;99.90
5276;DHT22;2661;50.786;12.728;2023-07-22T14:08:12;21.20;99.90
5276;DHT22;2661;50.786;12.728;2023-07-22T14:10:39;21.30;99.90
5276;DHT22;2661;50.786;12.728;2023-07-22T14:13:06;21.30;99.90
5276;DHT22;2661;50.786;12.728;2023-07-22T14:15:32;21.30;99.90
5276;DHT22;2661;50.786;12.728;2023-07-22T14:17:59;21.30;99.90
5276;DHT22;2661;50.786;12.728;2023-07-22T14:20:26;21.30;99.90
5276;DHT22;2661;50.786;12.728;2023-07-22T14:22:52;21.30;99.90
5276;DHT22;2661;50.786;12.728;2023-07-22T14:25:19;21.30;99.90
5276;DHT22;2661;50.786;12.728;2023-07-22T14:27:46;21.30;99.90
5276;DHT22;2661;50.786;12.728;2023-07-22T14:30:12;21.20;99.90
5276;DHT22;2661;50.786;12.728;2023-07-22T14:32:39;21.30;99.90
5276;DHT22;2661;50.786;12.728;2023-07-22T14:35:06;21.40;99.90
5276;DHT22;2661;50.786;12.728;2023-07-22T14:37:33;21.50;99.90
5276;DHT22;2661;50.786;12.728;2023-07-22T14:39:59;21.60;99.90
5276;DHT22;2661;50.786;12.728;2023-07-22T14:42:26;21.60;99.90
5276;DHT22;2661;50.786;12.728;2023-07-22T14:44:53;21.60;99.90
5276;DHT22;2661;50.786;12.728;2023-07-22T14:47:19;21.50;99.90
5276;DHT22;2661;50.786;12.728;2023-07-22T14:49:46;21.60;99.90
5276;DHT22;2661;50.786;12.728;2023-07-22T14:52:12;21.50;99.90
5276;DHT22;2661;50.786;12.728;2023-07-22T14:54:39;21.40;99.90
5276;DHT22;2661;50.786;12.728;2023-07-22T14:57:06;21.40;99.90
5276;DHT22;2661;50.786;12.728;2023-07-22T14:59:32;21.50;99.90
5276;DHT22;2661;50.786;12.728;2023-07-22T15:01:59;21.60;99.90
5276;DHT22;2661;50.786;12.728;2023-07-22T15:04:26;21.70;99.90
5276;DHT22;2661;50.786;12.728;2023-07-22T15:06:52;21.80;99.90
5276;DHT22;2661;50.786;12.728;2023-07-22T15:09:19;21.90;99.90
5276;DHT22;2661;50.786;12.728;2023-07-22T15:11:47;21.90;99.90
5276;DHT22;2661;50.786;12.728;2023-07-22T15:14:13;21.90;99.90
5276;DHT22;2661;50.786;12.728;2023-07-22T15:16:40;21.80;99.90
5276;DHT22;2661;50.786;12.728;2023-07-22T15:19:09;21.90;99.90
5276;DHT22;2661;50.786;12.728;2023-07-22T15:21:36;21.90;99.90
5276;DHT22;2661;50.786;12.728;2023-07-22T15:24:03;21.90;99.90
5276;DHT22;2661;50.786;12.728;2023-07-22T15:26:30;21.90;99.90
5276;DHT22;2661;50.786;12.728;2023-07-22T15:28:56;21.90;99.90
5276;DHT22;2661;50.786;12.728;2023-07-22T15:31:23;21.90;99.90
5276;DHT22;2661;50.786;12.728;2023-07-22T15:33:50;21.80;99.90
5276;DHT22;2661;50.786;12.728;2023-07-22T15:36:16;21.80;99.90
5276;DHT22;2661;50.786;12.728;2023-07-22T15:38:43;21.70;1.00
5276;DHT22;2661;50.786;12.728;2023-07-22T15:41:09;21.70;99.90
5276;DHT22;2661;50.786;12.728;2023-07-22T15:43:36;21.90;99.90
5276;DHT22;2661;50.786;12.728;2023-07-22T15:46:03;22.00;99.90
5276;DHT22;2661;50.786;12.728;2023-07-22T15:48:29;22.10;99.90
5276;DHT22;2661;50.786;12.728;2023-07-22T15:50:56;22.20;99.90
5276;DHT22;2661;50.786;12.728;2023-07-22T15:53:23;22.20;99.90
5276;DHT22;2661;50.786;12.728;2023-07-22T15:55:50;22.10;99.90